createdAt,value
2023-02-27T00:04:34.723Z,4.43
2023-02-27T00:09:42.057Z,3.85
2023-02-27T00:14:45.524Z,4.10
2023-02-27T00:19:48.916Z,4.70
2023-02-27T00:24:53.715Z,4.00
2023-02-27T00:35:00.432Z,4.40
2023-02-27T00:40:06.479Z,3.75
2023-02-27T00:45:11.065Z,4.10
2023-02-27T00:50:15.534Z,4.57
2023-02-27T01:00:24.081Z,4.00
2023-02-27T01:05:27.720Z,4.43
2023-02-27T01:10:32.749Z,4.35
2023-02-27T01:15:36.379Z,4.63
2023-02-27T01:20:39.878Z,4.80
2023-02-27T01:25:44.776Z,4.60
2023-02-27T01:30:48.417Z,4.70
2023-02-27T01:35:51.993Z,4.80
2023-02-27T01:40:57.540Z,4.35
2023-02-27T01:46:01.473Z,4.90
2023-02-27T01:51:09.160Z,5.00
2023-02-27T01:56:17.321Z,4.32
2023-02-27T02:01:22.824Z,4.28
2023-02-27T02:06:26.643Z,5.50
2023-02-27T02:11:31.736Z,4.85
2023-02-27T02:17:13.918Z,4.60
2023-02-27T02:22:42.718Z,4.78
2023-02-27T02:28:04.468Z,4.88
2023-02-27T02:33:47.336Z,4.80
2023-02-27T02:39:09.269Z,5.15
2023-02-27T02:44:24.737Z,4.75
2023-02-27T02:49:34.568Z,4.50
2023-02-27T02:54:45.104Z,4.80
2023-02-27T02:59:55.244Z,5.22
2023-02-27T03:05:02.954Z,5.22
2023-02-27T03:10:11.705Z,5.13
2023-02-27T03:15:20.320Z,5.45
2023-02-27T03:20:26.609Z,4.65
2023-02-27T03:25:32.774Z,5.25
2023-02-27T03:30:39.240Z,4.78
2023-02-27T03:35:48.564Z,5.60
2023-02-27T03:41:04.968Z,5.20
2023-02-27T03:46:13.608Z,6.10
2023-02-27T03:51:19.601Z,5.25
2023-02-27T03:56:29.663Z,4.70
2023-02-27T04:01:33.628Z,4.70
2023-02-27T04:06:56.032Z,5.73
2023-02-27T04:12:25.174Z,5.82
2023-02-27T04:17:31.760Z,5.25
2023-02-27T04:22:39.590Z,5.30
2023-02-27T04:27:52.801Z,5.22
2023-02-27T04:33:01.324Z,5.25
2023-02-27T04:38:11.085Z,5.75
2023-02-27T04:43:17.883Z,5.25
2023-02-27T04:48:24.589Z,5.43
2023-02-27T04:53:33.492Z,5.70
2023-02-27T04:58:41.392Z,5.13
2023-02-27T05:03:49.050Z,5.22
2023-02-27T05:09:00.461Z,5.65
2023-02-27T05:14:13.679Z,5.90
2023-02-27T05:19:20.178Z,5.47
2023-02-27T05:24:32.127Z,5.38
2023-02-27T05:29:43.881Z,5.05
2023-02-27T05:34:54.114Z,5.45
2023-02-27T05:39:58.565Z,4.53
2023-02-27T05:45:09.132Z,5.40
2023-02-27T05:50:17.019Z,5.20
2023-02-27T05:55:25.600Z,4.88
2023-02-27T06:00:38.628Z,5.45
2023-02-27T06:05:44.648Z,5.07
2023-02-27T06:10:50.001Z,5.03
2023-02-27T06:15:55.017Z,4.32
2023-02-27T06:20:58.882Z,5.03
2023-02-27T06:26:02.445Z,4.13
2023-02-27T06:31:07.333Z,4.88
2023-02-27T06:36:11.368Z,4.10
2023-02-27T06:41:15.143Z,4.53
2023-02-27T06:46:20.216Z,4.50
2023-02-27T06:51:23.582Z,4.50
2023-02-27T06:56:27.319Z,3.92
2023-02-27T07:01:32.406Z,4.30
2023-02-27T07:07:34.246Z,4.32
2023-02-27T07:11:59.580Z,4.90
2023-02-27T07:17:04.831Z,4.60
2023-02-27T07:22:09.672Z,3.90
2023-02-27T07:27:13.022Z,4.13
2023-02-27T07:32:18.110Z,3.58
2023-02-27T07:37:21.701Z,3.72
2023-02-27T07:42:26.570Z,3.42
2023-02-27T07:47:32.006Z,3.17
2023-02-27T07:52:35.617Z,3.58
2023-02-27T07:57:39.587Z,4.63
2023-02-27T08:02:44.479Z,3.93
2023-02-27T08:12:51.066Z,3.17
2023-02-27T08:17:56.217Z,3.70
2023-02-27T08:22:59.858Z,3.38
2023-02-27T08:28:03.377Z,3.15
2023-02-27T08:33:08.300Z,3.50
2023-02-27T08:43:15.096Z,2.97
2023-02-27T08:48:20.345Z,3.63
2023-02-27T08:53:23.904Z,3.30
2023-02-27T08:58:28.819Z,3.75
2023-02-27T09:08:36.821Z,3.17
2023-02-27T09:13:40.351Z,3.28
2023-02-27T09:18:45.661Z,3.20
2023-02-27T09:23:49.175Z,3.10
2023-02-27T09:28:52.779Z,3.03
2023-02-27T09:33:58.445Z,2.92
2023-02-27T09:39:01.932Z,3.10
2023-02-27T09:44:05.580Z,2.80
2023-02-27T09:49:17.876Z,2.78
2023-02-27T09:54:21.551Z,3.10
2023-02-27T09:59:36.105Z,2.80
2023-02-27T10:04:48.890Z,2.75
2023-02-27T10:10:01.708Z,3.05
2023-02-27T10:15:11.969Z,2.88
2023-02-27T10:20:25.731Z,3.00
2023-02-27T10:25:32.173Z,2.67
2023-02-27T10:30:36.207Z,2.78
2023-02-27T10:35:44.536Z,2.63
2023-02-27T10:40:49.818Z,2.72
2023-02-27T10:45:54.598Z,2.83
2023-02-27T10:51:23.931Z,3.30
2023-02-27T10:56:28.862Z,3.03
2023-02-27T11:01:44.433Z,2.80
2023-02-27T11:06:54.804Z,3.20
2023-02-27T11:12:13.332Z,3.50
2023-02-27T11:17:24.324Z,3.00
2023-02-27T11:22:31.477Z,2.67
2023-02-27T11:27:34.933Z,2.83
2023-02-27T11:32:44.312Z,2.63
2023-02-27T11:37:51.247Z,2.60
2023-02-27T11:42:58.530Z,2.88
2023-02-27T11:48:09.721Z,2.80
2023-02-27T11:53:35.842Z,2.92
2023-02-27T11:58:44.703Z,2.90
2023-02-27T12:03:53.770Z,3.05
2023-02-27T12:09:06.309Z,2.85
2023-02-27T12:14:18.136Z,3.50
2023-02-27T12:19:27.194Z,3.13
2023-02-27T12:24:37.981Z,3.50
2023-02-27T12:29:45.297Z,4.50
2023-02-27T12:34:51.313Z,3.13
2023-02-27T12:39:57.933Z,3.45
2023-02-27T12:45:23.590Z,3.97
2023-02-27T12:50:31.578Z,3.70
2023-02-27T12:55:42.569Z,3.80
2023-02-27T13:00:49.726Z,4.07
2023-02-27T13:06:01.871Z,4.20
2023-02-27T13:11:17.499Z,5.43
2023-02-27T13:16:25.864Z,4.50
2023-02-27T13:21:36.469Z,4.82
2023-02-27T13:26:45.356Z,5.15
2023-02-27T13:31:57.502Z,4.97
2023-02-27T13:37:04.599Z,5.00
2023-02-27T13:42:55.571Z,5.03
2023-02-27T13:47:58.994Z,4.90
2023-02-27T13:53:11.415Z,4.68
2023-02-27T13:58:24.924Z,4.60
2023-02-27T14:03:30.419Z,4.47
2023-02-27T14:08:48.119Z,4.45
2023-02-27T14:14:08.438Z,3.90
2023-02-27T14:19:45.128Z,5.05
2023-02-27T14:25:02.867Z,4.88
2023-02-27T14:30:26.467Z,4.30
2023-02-27T14:35:31.702Z,4.07
2023-02-27T14:40:41.703Z,4.70
2023-02-27T14:45:46.678Z,4.10
2023-02-27T14:50:54.063Z,4.28
2023-02-27T14:55:59.122Z,4.47
2023-02-27T15:01:07.707Z,4.40
2023-02-27T15:06:18.519Z,4.70
2023-02-27T15:11:24.365Z,4.07
2023-02-27T15:16:39.280Z,4.72
2023-02-27T15:21:45.769Z,4.88
2023-02-27T15:26:52.500Z,5.25
2023-02-27T15:31:57.623Z,4.65
2023-02-27T15:37:02.285Z,5.00
2023-02-27T15:42:07.048Z,4.43
2023-02-27T15:47:16.861Z,5.10
2023-02-27T15:52:23.291Z,4.20
2023-02-27T15:57:27.312Z,4.55
2023-02-27T16:02:41.503Z,3.90
2023-02-27T16:07:45.929Z,3.75
2023-02-27T16:12:49.541Z,4.07
2023-02-27T16:18:03.679Z,4.00
2023-02-27T16:23:16.253Z,4.37
2023-02-27T16:28:19.866Z,4.68
2023-02-27T16:33:25.989Z,4.30
2023-02-27T16:38:29.631Z,4.65
2023-02-27T16:43:33.741Z,4.30
2023-02-27T16:48:38.644Z,3.67
2023-02-27T16:58:45.881Z,3.90
2023-02-27T17:03:50.784Z,3.60
2023-02-27T17:08:56.202Z,3.33
2023-02-27T17:13:59.812Z,3.08
2023-02-27T17:19:04.833Z,3.67
2023-02-27T17:24:08.673Z,3.97
2023-02-27T17:29:12.493Z,3.83
2023-02-27T17:34:18.230Z,3.33
2023-02-27T17:39:21.726Z,3.63
2023-02-27T17:44:25.137Z,3.30
2023-02-27T17:49:29.931Z,3.60
2023-02-27T17:59:37.777Z,3.50
2023-02-27T18:04:42.829Z,3.22
2023-02-27T18:09:47.031Z,3.67
2023-02-27T18:14:50.438Z,3.75
2023-02-27T18:19:55.783Z,4.17
2023-02-27T18:24:59.428Z,4.10
2023-02-27T18:30:03.812Z,4.13
2023-02-27T18:35:10.810Z,4.27
2023-02-27T18:40:15.905Z,4.10
2023-02-27T18:45:19.524Z,4.23
2023-02-27T18:50:25.441Z,4.10
2023-02-27T18:55:29.187Z,4.03
2023-02-27T19:00:32.625Z,4.43
2023-02-27T19:05:42.772Z,3.90
2023-02-27T19:10:46.240Z,4.50
2023-02-27T19:15:49.897Z,4.50
2023-02-27T19:20:56.464Z,4.20
2023-02-27T19:26:01.062Z,4.17
2023-02-27T19:31:08.638Z,4.57
2023-02-27T19:36:15.409Z,4.20
2023-02-27T19:41:19.152Z,4.03
2023-02-27T19:46:25.224Z,3.80
2023-02-27T19:51:30.558Z,4.03
2023-02-27T19:56:34.201Z,4.37
2023-02-27T20:01:39.062Z,4.47
2023-02-27T20:06:46.954Z,3.97
2023-02-27T20:11:54.016Z,3.83
2023-02-27T20:16:57.518Z,4.00
2023-02-27T20:22:02.483Z,4.23
2023-02-27T20:27:07.536Z,4.10
2023-02-27T20:32:11.126Z,4.10
2023-02-27T20:37:16.480Z,4.43
2023-02-27T20:42:19.949Z,4.07
2023-02-27T20:47:23.515Z,4.07
2023-02-27T20:52:28.312Z,4.97
2023-02-27T20:57:31.693Z,4.60
2023-02-27T21:02:35.166Z,4.10
2023-02-27T21:07:40.063Z,4.37
2023-02-27T21:12:45.229Z,4.23
2023-02-27T21:17:48.812Z,4.00
2023-02-27T21:22:56.010Z,3.90
2023-02-27T21:28:02.338Z,4.00
2023-02-27T21:33:06.341Z,3.90
2023-02-27T21:38:11.576Z,4.50
2023-02-27T21:43:15.099Z,4.13
2023-02-27T21:48:18.630Z,4.37
2023-02-27T21:53:23.389Z,4.33
2023-02-27T21:58:26.870Z,3.97
2023-02-27T22:03:35.124Z,4.47
2023-02-27T22:08:40.466Z,5.20
2023-02-27T22:13:43.967Z,4.60
2023-02-27T22:18:47.709Z,4.73
2023-02-27T22:23:53.182Z,4.80
2023-02-27T22:28:58.190Z,5.40
2023-02-27T22:34:04.099Z,5.60
2023-02-27T22:39:08.818Z,5.10
2023-02-27T22:44:14.951Z,5.57
2023-02-27T22:49:20.609Z,5.70
2023-02-27T22:54:25.646Z,5.17
2023-02-27T22:59:29.343Z,5.03
2023-02-27T23:04:32.789Z,5.27
2023-02-27T23:09:37.664Z,5.57
2023-02-27T23:14:40.996Z,6.07
2023-02-27T23:19:46.118Z,6.73
2023-02-27T23:24:50.861Z,6.70
2023-02-27T23:29:54.266Z,6.83
2023-02-27T23:34:57.612Z,6.53
2023-02-27T23:40:02.493Z,6.70
2023-02-27T23:45:07.374Z,5.93
2023-02-27T23:50:12.643Z,5.80
2023-02-27T23:55:18.501Z,6.60
